Time;durP1;ratioP1;P1;durP2;ratioP2;P2;SDS_P1;SDS_P2;PMS_P1;PMS_P2;Temp;Humidity;BMP_temperature;BMP_pressure;BME280_temperature;BME280_humidity;BME280_pressure;Samples;Min_cycle;Max_cycle;Signal;HPM_P1;HPM_P2
2022/10/11 00:02:09;;;;;;;2.93;2.47;;;13.70;99.90;;;;;;5049360;28;20484;-67
2022/10/11 00:04:37;;;;;;;3.30;2.77;;;13.80;99.90;;;;;;5050131;28;20852;-67
2022/10/11 00:07:04;;;;;;;4.00;3.60;;;13.70;99.90;;;;;;5050032;28;20467;-67
2022/10/11 00:09:31;;;;;;;3.60;3.33;;;13.70;99.90;;;;;;5050199;28;20459;-67
2022/10/11 00:11:57;;;;;;;7.40;3.47;;;13.70;99.90;;;;;;5049150;28;20833;-67
2022/10/11 00:14:25;;;;;;;2.90;2.57;;;13.60;99.90;;;;;;5049964;28;20480;-67
2022/10/11 00:16:52;;;;;;;3.20;2.77;;;13.60;99.90;;;;;;5049949;28;20486;-67
2022/10/11 00:19:19;;;;;;;3.17;2.80;;;13.50;99.90;;;;;;5050289;28;20463;-67
2022/10/11 00:21:47;;;;;;;3.90;2.67;;;13.50;99.90;;;;;;5053368;28;20482;-67
2022/10/11 00:24:15;;;;;;;3.07;2.87;;;13.50;99.90;;;;;;5053821;28;21053;-67
2022/10/11 00:26:43;;;;;;;2.80;2.50;;;13.50;99.90;;;;;;5053984;28;20468;-67
2022/10/11 00:29:10;;;;;;;3.20;2.13;;;13.40;99.90;;;;;;5053805;28;20470;-67
2022/10/11 00:31:37;;;;;;;2.67;2.30;;;13.40;99.90;;;;;;5053396;28;20558;-67
2022/10/11 00:34:04;;;;;;;2.30;1.90;;;13.30;99.90;;;;;;5053534;28;20484;-67
2022/10/11 00:36:31;;;;;;;2.60;2.17;;;13.30;99.90;;;;;;5055228;28;20456;-67
2022/10/11 00:38:59;;;;;;;2.40;2.20;;;13.20;99.90;;;;;;5053781;28;20479;-67
2022/10/11 00:41:26;;;;;;;2.73;2.53;;;13.20;99.90;;;;;;5053234;28;20970;-68
2022/10/11 00:44:09;;;;;;;3.87;2.37;;;13.20;99.90;;;;;;5053387;28;20484;-67
2022/10/11 00:46:35;;;;;;;2.40;2.13;;;13.10;99.90;;;;;;5053745;28;20470;-67
2022/10/11 00:49:05;;;;;;;2.37;2.17;;;13.10;99.90;;;;;;5053310;28;20460;-67
2022/10/11 00:51:43;;;;;;;3.63;2.70;;;13.00;99.90;;;;;;5052998;28;20465;-68
2022/10/11 00:54:14;;;;;;;3.30;2.80;;;13.00;99.90;;;;;;5053149;28;20491;-67
2022/10/11 00:56:43;;;;;;;2.83;2.40;;;13.00;99.90;;;;;;5053534;28;20459;-67
2022/10/11 00:59:13;;;;;;;2.80;2.43;;;13.00;99.90;;;;;;5053223;28;20471;-67
2022/10/11 01:01:40;;;;;;;2.35;2.15;;;13.00;99.90;;;;;;5052883;28;20463;-68
2022/10/11 01:04:07;;;;;;;2.13;1.67;;;12.90;99.90;;;;;;5052905;28;20221;-68
2022/10/11 01:06:34;;;;;;;2.50;2.23;;;12.90;99.90;;;;;;5053243;28;20954;-67
2022/10/11 01:09:01;;;;;;;3.40;2.13;;;12.90;99.90;;;;;;5053009;28;20831;-67
2022/10/11 01:11:30;;;;;;;4.03;2.13;;;12.90;99.90;;;;;;5052525;28;20982;-67
2022/10/11 01:14:15;;;;;;;3.33;2.43;;;12.80;99.90;;;;;;5052828;28;20492;-67
2022/10/11 01:16:51;;;;;;;2.60;2.40;;;12.80;99.90;;;;;;5053143;28;20979;-67
2022/10/11 01:19:34;;;;;;;8.37;2.50;;;12.80;99.90;;;;;;5052944;28;20571;-67
2022/10/11 01:22:16;;;;;;;3.43;2.17;;;12.80;99.90;;;;;;5052202;28;20471;-67
2022/10/11 01:25:00;;;;;;;2.47;2.10;;;12.70;99.90;;;;;;5052979;28;20487;-67
2022/10/11 01:27:46;;;;;;;3.00;2.27;;;12.70;99.90;;;;;;5052933;28;20494;-67
2022/10/11 01:30:22;;;;;;;3.00;2.70;;;12.70;99.90;;;;;;5052688;28;20459;-67
2022/10/11 01:32:56;;;;;;;6.10;3.00;;;12.70;99.90;;;;;;5050913;28;20484;-67
2022/10/11 01:35:29;;;;;;;3.97;3.15;;;12.70;99.90;;;;;;5052805;28;20479;-67
2022/10/11 01:38:02;;;;;;;2.55;2.15;;;12.70;99.90;;;;;;5052530;28;20569;-67
2022/10/11 01:40:34;;;;;;;2.85;2.45;;;12.70;99.90;;;;;;5052744;28;20206;-67
2022/10/11 01:43:02;;;;;;;3.40;2.55;;;12.60;99.90;;;;;;5051903;28;20202;-67
2022/10/11 01:45:32;;;;;;;2.53;2.33;;;12.60;99.90;;;;;;5052294;28;20245;-67
2022/10/11 01:48:04;;;;;;;3.55;2.58;;;12.60;99.90;;;;;;5052191;28;20469;-67
2022/10/11 01:50:38;;;;;;;5.10;3.05;;;12.50;99.90;;;;;;5052492;28;20198;-67
2022/10/11 01:53:22;;;;;;;3.75;2.50;;;12.50;99.90;;;;;;5051508;28;20228;-67
2022/10/11 01:55:53;;;;;;;3.28;2.85;;;12.50;99.90;;;;;;5052152;28;20225;-67
2022/10/11 01:58:31;;;;;;;3.40;3.10;;;12.50;99.90;;;;;;5052298;28;20201;-67
2022/10/11 02:01:08;;;;;;;4.27;3.03;;;12.50;99.90;;;;;;5051923;28;20459;-67
2022/10/11 02:03:45;;;;;;;4.87;3.40;;;12.50;99.90;;;;;;5051996;28;21211;-67
2022/10/11 02:06:20;;;;;;;3.33;2.70;;;12.50;99.90;;;;;;5051928;28;20468;-67
2022/10/11 02:08:55;;;;;;;4.70;2.80;;;12.60;99.90;;;;;;5052205;28;20201;-67
2022/10/11 02:11:25;;;;;;;3.60;2.80;;;12.50;99.90;;;;;;5051575;28;20464;-67
2022/10/11 02:13:57;;;;;;;3.33;3.03;;;12.50;99.90;;;;;;5051704;28;21003;-67
2022/10/11 02:16:31;;;;;;;2.90;2.60;;;12.50;99.90;;;;;;5052000;28;20582;-67
2022/10/11 02:19:01;;;;;;;2.60;2.40;;;12.50;99.90;;;;;;5051691;28;20196;-67
2022/10/11 02:21:29;;;;;;;5.15;3.28;;;12.50;99.90;;;;;;5051222;28;20456;-67
2022/10/11 02:24:01;;;;;;;3.10;2.50;;;12.50;99.90;;;;;;5051560;28;20218;-67
2022/10/11 02:26:31;;;;;;;5.18;3.67;;;12.50;99.90;;;;;;5051900;28;20588;-67
2022/10/11 02:29:03;;;;;;;5.05;3.70;;;12.50;99.90;;;;;;5051474;28;20206;-67
2022/10/11 02:31:34;;;;;;;6.53;2.63;;;12.50;99.90;;;;;;5051164;28;20296;-67
2022/10/11 02:34:07;;;;;;;4.53;3.60;;;12.50;99.90;;;;;;5051369;28;20225;-68
2022/10/11 02:36:45;;;;;;;4.85;3.30;;;12.60;99.90;;;;;;5051649;28;20206;-67
2022/10/11 02:39:16;;;;;;;7.83;3.23;;;12.60;99.90;;;;;;5051348;28;20205;-68
2022/10/11 02:41:43;;;;;;;6.30;3.77;;;12.60;99.90;;;;;;5051000;28;20990;-67
2022/10/11 02:44:13;;;;;;;4.47;3.00;;;12.60;99.90;;;;;;5050739;28;20475;-67
2022/10/11 02:46:44;;;;;;;6.47;3.42;;;12.70;99.90;;;;;;5051308;28;20205;-67
2022/10/11 02:49:12;;;;;;;3.27;2.80;;;12.70;99.90;;;;;;5051115;28;20205;-67
2022/10/11 02:51:39;;;;;;;4.70;3.60;;;12.70;99.90;;;;;;5050781;28;20491;-67
2022/10/11 02:54:06;;;;;;;7.40;3.80;;;12.70;99.90;;;;;;5050863;28;20495;-67
2022/10/11 02:56:33;;;;;;;4.27;3.70;;;12.70;99.90;;;;;;5051277;28;20205;-67
2022/10/11 02:58:59;;;;;;;4.70;3.70;;;12.70;99.90;;;;;;5050924;28;20491;-67
2022/10/11 03:01:26;;;;;;;5.60;3.80;;;12.70;99.90;;;;;;5050539;28;20838;-67
2022/10/11 03:03:54;;;;;;;5.00;3.90;;;12.70;99.90;;;;;;5050841;28;20723;-67
2022/10/11 03:06:21;;;;;;;4.20;3.80;;;12.80;99.90;;;;;;5051150;28;20456;-67
2022/10/11 03:08:48;;;;;;;4.70;3.43;;;12.80;99.90;;;;;;5050994;28;20464;-67
2022/10/11 03:11:14;;;;;;;6.00;4.90;;;12.80;99.90;;;;;;5050269;28;20494;-67
2022/10/11 03:13:41;;;;;;;4.07;3.40;;;12.90;99.90;;;;;;5050887;28;20854;-67
2022/10/11 03:16:08;;;;;;;4.20;3.50;;;12.90;99.90;;;;;;5050622;28;20464;-67
2022/10/11 03:18:35;;;;;;;13.73;4.70;;;12.90;99.90;;;;;;5050910;28;20456;-67
2022/10/11 03:21:03;;;;;;;4.97;4.07;;;12.90;99.90;;;;;;5050583;28;20205;-67
2022/10/11 03:23:30;;;;;;;5.60;3.80;;;13.00;99.90;;;;;;5050194;28;20452;-67
2022/10/11 03:25:56;;;;;;;5.50;4.20;;;12.90;99.90;;;;;;5050639;28;20669;-67
2022/10/11 03:28:23;;;;;;;3.73;3.37;;;12.90;99.90;;;;;;5050635;28;20459;-67
2022/10/11 03:30:51;;;;;;;4.67;4.17;;;13.00;99.90;;;;;;5050106;28;20464;-67
2022/10/11 03:33:18;;;;;;;5.60;4.10;;;13.00;99.90;;;;;;5049913;28;20488;-67
2022/10/11 03:35:45;;;;;;;4.80;4.10;;;13.00;99.90;;;;;;5040455;28;20866;-67
2022/10/11 03:38:15;;;;;;;5.30;3.40;;;13.00;99.90;;;;;;5039126;28;20461;-67
2022/10/11 03:40:42;;;;;;;6.17;3.73;;;13.10;99.90;;;;;;5040306;28;20464;-67
2022/10/11 03:43:09;;;;;;;3.93;3.53;;;13.10;99.90;;;;;;5040382;28;20456;-67
2022/10/11 03:45:36;;;;;;;5.10;4.40;;;13.10;99.90;;;;;;5038437;28;20492;-67
2022/10/11 03:48:04;;;;;;;4.47;4.07;;;13.00;99.90;;;;;;5038955;28;20460;-67
2022/10/11 03:50:31;;;;;;;6.17;4.43;;;13.10;99.90;;;;;;5045602;28;20460;-67
2022/10/11 03:52:57;;;;;;;4.50;3.80;;;13.10;99.90;;;;;;5047192;28;20944;-67
2022/10/11 03:55:26;;;;;;;4.13;3.50;;;13.10;99.90;;;;;;5050186;28;20484;-68
2022/10/11 03:57:52;;;;;;;6.77;4.63;;;13.10;99.90;;;;;;5052217;28;20985;-68
2022/10/11 04:00:20;;;;;;;5.23;4.20;;;13.10;99.90;;;;;;5052381;28;20464;-67
2022/10/11 04:02:46;;;;;;;4.80;4.20;;;13.10;99.90;;;;;;5051701;28;20471;-67
2022/10/11 04:05:13;;;;;;;6.67;4.80;;;13.10;99.90;;;;;;5052924;28;20566;-68
2022/10/11 04:07:41;;;;;;;9.13;5.37;;;13.10;99.90;;;;;;5054732;28;20460;-67
2022/10/11 04:10:08;;;;;;;4.60;4.20;;;13.10;99.90;;;;;;5054367;28;20471;-67
2022/10/11 04:12:39;;;;;;;7.30;4.90;;;13.10;99.90;;;;;;5053827;28;20463;-68
2022/10/11 04:15:07;;;;;;;7.30;5.07;;;13.10;99.90;;;;;;5053967;28;20484;-68
2022/10/11 04:17:34;;;;;;;9.33;5.80;;;13.10;99.90;;;;;;5054187;28;20474;-67
2022/10/11 04:20:00;;;;;;;7.40;5.53;;;13.10;99.90;;;;;;5054053;28;20462;-67
2022/10/11 04:22:27;;;;;;;7.68;5.75;;;13.10;99.90;;;;;;5053723;28;20361;-67
2022/10/11 04:24:54;;;;;;;10.60;6.57;;;13.20;99.90;;;;;;5053883;28;20221;-67
2022/10/11 04:27:20;;;;;;;8.03;6.37;;;13.20;99.90;;;;;;5054151;28;20463;-67
2022/10/11 04:29:48;;;;;;;12.00;7.63;;;13.20;99.90;;;;;;5054160;28;20473;-67
2022/10/11 04:32:15;;;;;;;12.37;7.17;;;13.20;99.90;;;;;;5053329;28;20856;-67
2022/10/11 04:34:42;;;;;;;15.87;7.90;;;13.20;99.90;;;;;;5053907;28;20487;-67
2022/10/11 04:37:09;;;;;;;9.30;7.70;;;13.20;99.90;;;;;;5053726;28;20818;-67
2022/10/11 04:39:37;;;;;;;10.20;7.10;;;13.30;99.90;;;;;;5053981;28;20485;-68
2022/10/11 04:42:04;;;;;;;10.80;6.90;;;13.30;99.90;;;;;;5053056;28;20459;-67
2022/10/11 04:44:31;;;;;;;10.37;7.53;;;13.30;99.90;;;;;;5053626;28;20487;-67
2022/10/11 04:46:59;;;;;;;12.98;7.90;;;13.30;99.90;;;;;;5053446;28;20468;-68
2022/10/11 04:49:26;;;;;;;9.23;6.57;;;13.30;99.90;;;;;;5053663;28;20208;-67
2022/10/11 04:51:53;;;;;;;9.60;6.63;;;13.30;99.90;;;;;;5053045;28;20456;-68
2022/10/11 04:54:20;;;;;;;8.97;7.50;;;13.30;99.90;;;;;;5053544;28;20488;-69
2022/10/11 04:56:46;;;;;;;11.87;8.00;;;13.30;99.90;;;;;;5053611;28;20464;-69
2022/10/11 04:59:13;;;;;;;9.13;6.10;;;13.30;99.90;;;;;;5053328;28;20464;-68
2022/10/11 05:01:40;;;;;;;9.00;6.77;;;13.30;99.90;;;;;;5052895;28;20467;-69
2022/10/11 05:04:08;;;;;;;11.20;7.97;;;13.30;99.90;;;;;;5053176;28;20487;-68
2022/10/11 05:06:34;;;;;;;12.03;8.90;;;13.30;99.90;;;;;;5052881;28;20471;-68
2022/10/11 05:09:01;;;;;;;9.57;7.00;;;13.30;99.90;;;;;;5049991;28;20457;-69
2022/10/11 05:11:28;;;;;;;10.17;7.47;;;13.30;99.90;;;;;;5052764;28;20849;-67
2022/10/11 05:13:55;;;;;;;9.90;7.57;;;13.30;99.90;;;;;;5052808;28;20495;-67
2022/10/11 05:16:23;;;;;;;10.47;7.90;;;13.30;99.90;;;;;;5053356;28;20890;-68
2022/10/11 05:18:49;;;;;;;11.60;7.40;;;13.30;99.90;;;;;;5052905;28;20464;-67
2022/10/11 05:21:19;;;;;;;8.93;7.53;;;13.30;99.90;;;;;;5052621;28;20471;-67
2022/10/11 05:23:47;;;;;;;11.97;9.07;;;13.30;99.90;;;;;;5052949;28;20456;-67
2022/10/11 05:26:14;;;;;;;10.07;8.00;;;13.30;99.90;;;;;;5052860;28;20459;-67
2022/10/11 05:28:40;;;;;;;10.53;8.70;;;13.30;99.90;;;;;;5052708;28;20491;-68
2022/10/11 05:31:07;;;;;;;9.27;7.87;;;13.30;99.90;;;;;;5052810;28;21109;-66
2022/10/11 05:33:34;;;;;;;12.80;7.77;;;13.30;99.90;;;;;;5043832;28;20460;-68
2022/10/11 05:36:01;;;;;;;15.53;8.67;;;13.30;99.90;;;;;;5043119;28;20457;-67
2022/10/11 05:38:29;;;;;;;12.57;8.00;;;13.30;99.90;;;;;;5042230;28;20461;-68
2022/10/11 05:40:59;;;;;;;12.10;8.03;;;13.30;99.90;;;;;;5041117;28;20491;-67
2022/10/11 05:43:26;;;;;;;15.30;8.23;;;13.30;99.90;;;;;;5041315;28;20484;-68
2022/10/11 05:45:53;;;;;;;13.37;9.77;;;13.30;99.90;;;;;;5047463;22;20456;-66
2022/10/11 05:48:20;;;;;;;15.60;8.43;;;13.30;99.90;;;;;;5019330;28;20480;-67
2022/10/11 05:50:47;;;;;;;13.27;8.67;;;13.30;99.90;;;;;;5023886;28;20822;-68
2022/10/11 05:53:14;;;;;;;11.20;8.50;;;13.30;99.90;;;;;;5031845;28;20460;-69
2022/10/11 05:55:43;;;;;;;13.87;8.53;;;13.30;99.90;;;;;;5032508;28;20500;-68
2022/10/11 05:58:12;;;;;;;10.37;8.30;;;13.30;99.90;;;;;;5025015;28;20457;-68
2022/10/11 06:00:39;;;;;;;17.73;10.07;;;13.30;99.90;;;;;;5027285;28;20460;-68
2022/10/11 06:03:07;;;;;;;12.87;8.70;;;13.30;99.90;;;;;;5032029;28;20874;-68
2022/10/11 06:05:35;;;;;;;10.80;8.67;;;13.30;99.90;;;;;;5032324;28;20571;-69
2022/10/11 06:08:02;;;;;;;14.70;9.80;;;13.30;99.90;;;;;;5031970;28;20456;-69
2022/10/11 06:10:29;;;;;;;10.83;7.80;;;13.30;99.90;;;;;;5032243;28;20848;-69
2022/10/11 06:12:57;;;;;;;10.17;8.30;;;13.30;99.90;;;;;;5030866;28;20467;-68
2022/10/11 06:15:24;;;;;;;11.23;8.40;;;13.30;99.90;;;;;;5032048;28;20488;-69
2022/10/11 06:17:51;;;;;;;11.63;9.27;;;13.30;99.90;;;;;;5031039;28;20895;-68
2022/10/11 06:20:18;;;;;;;12.88;9.27;;;13.30;99.90;;;;;;5031945;28;20534;-68
2022/10/11 06:22:45;;;;;;;12.37;9.50;;;13.30;99.90;;;;;;5031216;28;20202;-68
2022/10/11 06:25:11;;;;;;;13.50;8.77;;;13.30;99.90;;;;;;5031660;28;20477;-68
2022/10/11 06:27:38;;;;;;;14.30;8.10;;;13.30;99.90;;;;;;5031778;28;20467;-68
2022/10/11 06:30:08;;;;;;;9.70;8.30;;;13.30;99.90;;;;;;5031473;28;20955;-68
2022/10/11 06:32:34;;;;;;;9.93;6.17;;;13.30;99.90;;;;;;5031000;28;20465;-68
2022/10/11 06:35:02;;;;;;;8.23;6.67;;;13.30;99.90;;;;;;5031451;28;20982;-68
2022/10/11 06:37:29;;;;;;;9.20;7.23;;;13.40;99.90;;;;;;5031808;28;20465;-68
2022/10/11 06:39:56;;;;;;;10.20;8.43;;;13.50;99.90;;;;;;5031458;28;20820;-68
2022/10/11 06:42:22;;;;;;;15.03;8.90;;;13.60;99.90;;;;;;5031367;28;20465;-68
2022/10/11 06:44:49;;;;;;;14.33;8.40;;;13.70;99.90;;;;;;5031387;28;20852;-68
2022/10/11 06:47:17;;;;;;;12.20;9.00;;;13.80;99.90;;;;;;5031473;28;20469;-69
2022/10/11 06:49:44;;;;;;;12.00;8.50;;;13.90;99.90;;;;;;5031214;28;20472;-68
2022/10/11 06:52:10;;;;;;;13.33;9.30;;;13.90;99.90;;;;;;5030887;28;20468;-68
2022/10/11 06:54:37;;;;;;;16.20;8.27;;;13.80;99.90;;;;;;5031343;28;20496;-68
2022/10/11 06:57:04;;;;;;;12.20;9.23;;;13.70;99.90;;;;;;5031008;28;20502;-69
2022/10/11 06:59:30;;;;;;;15.53;9.43;;;13.60;99.90;;;;;;5031298;28;20488;-68
2022/10/11 07:01:57;;;;;;;12.13;9.23;;;13.50;99.90;;;;;;5030424;28;20465;-68
2022/10/11 07:04:27;;;;;;;10.33;9.00;;;13.50;99.90;;;;;;5031085;28;20484;-69
2022/10/11 07:06:54;;;;;;;11.70;9.37;;;13.50;99.90;;;;;;5031093;28;20465;-68
2022/10/11 07:09:21;;;;;;;16.13;10.33;;;13.50;99.90;;;;;;5030933;28;20461;-68
2022/10/11 07:11:47;;;;;;;10.67;7.57;;;13.50;99.90;;;;;;5030334;28;20465;-68
2022/10/11 07:14:14;;;;;;;8.50;7.60;;;13.50;99.90;;;;;;5030922;28;20516;-68
2022/10/11 07:16:41;;;;;;;13.50;9.73;;;13.60;99.90;;;;;;5031078;28;20563;-68
2022/10/11 07:19:08;;;;;;;13.30;9.90;;;13.60;99.90;;;;;;5030798;28;20469;-68
2022/10/11 07:21:36;;;;;;;16.03;9.97;;;13.60;99.90;;;;;;5030434;28;20956;-68
2022/10/11 07:24:03;;;;;;;16.20;8.30;;;13.60;99.90;;;;;;5030746;28;20492;-68
2022/10/11 07:26:30;;;;;;;13.17;9.57;;;13.50;99.90;;;;;;5030820;28;20465;-68
2022/10/11 07:28:57;;;;;;;12.10;8.90;;;13.50;99.90;;;;;;5025354;28;20965;-68
2022/10/11 07:31:25;;;;;;;13.27;9.37;;;13.50;99.90;;;;;;5026504;28;20469;-68
2022/10/11 07:33:52;;;;;;;14.67;9.70;;;13.50;99.90;;;;;;5029954;28;20481;-68
2022/10/11 07:36:21;;;;;;;14.77;9.40;;;13.40;99.90;;;;;;5029929;28;20485;-68
2022/10/11 07:38:50;;;;;;;14.70;9.27;;;13.40;99.90;;;;;;5030291;28;20465;-69
2022/10/11 07:41:17;;;;;;;12.80;9.73;;;13.40;99.90;;;;;;5030248;28;20861;-68
2022/10/11 07:43:46;;;;;;;14.13;10.30;;;13.50;99.90;;;;;;5030192;28;20461;-67
2022/10/11 07:46:14;;;;;;;11.77;9.70;;;13.50;99.90;;;;;;5030625;28;21132;-68
2022/10/11 07:48:41;;;;;;;10.17;8.27;;;13.50;99.90;;;;;;5030319;28;20496;-67
2022/10/11 07:51:10;;;;;;;15.67;9.00;;;13.50;99.90;;;;;;5029676;28;20476;-68
2022/10/11 07:53:42;;;;;;;13.50;9.50;;;13.50;99.90;;;;;;5030008;28;20456;-69
2022/10/11 07:56:12;;;;;;;14.27;8.57;;;13.60;99.90;;;;;;5030152;28;20487;-69
2022/10/11 07:58:39;;;;;;;11.47;9.00;;;13.60;99.90;;;;;;5030166;28;20461;-69
2022/10/11 08:01:07;;;;;;;15.27;9.90;;;13.60;99.90;;;;;;5026158;28;20470;-68
2022/10/11 08:03:35;;;;;;;13.20;10.40;;;13.60;99.90;;;;;;5020193;28;20967;-68
2022/10/11 08:06:04;;;;;;;14.27;9.40;;;13.60;99.90;;;;;;5028704;28;20511;-68
2022/10/11 08:08:30;;;;;;;11.27;8.87;;;13.60;99.90;;;;;;5030469;28;20468;-68
2022/10/11 08:10:58;;;;;;;13.03;8.23;;;13.60;99.90;;;;;;5029624;28;20700;-68
2022/10/11 08:13:26;;;;;;;14.97;10.73;;;13.60;99.90;;;;;;5020076;28;20465;-68
2022/10/11 08:15:53;;;;;;;15.07;10.10;;;13.60;99.90;;;;;;5015161;28;20521;-68
2022/10/11 08:18:20;;;;;;;14.60;11.10;;;13.60;99.90;;;;;;5010570;28;20461;-69
2022/10/11 08:20:46;;;;;;;12.27;8.83;;;13.60;99.90;;;;;;5009868;28;20484;-68
2022/10/11 08:23:13;;;;;;;16.20;10.13;;;13.70;99.90;;;;;;5009827;28;20465;-68
2022/10/11 08:25:42;;;;;;;14.03;11.13;;;13.70;99.90;;;;;;5009972;28;20478;-69
2022/10/11 08:28:14;;;;;;;15.13;9.77;;;13.70;99.90;;;;;;5010465;28;20524;-68
2022/10/11 08:30:47;;;;;;;11.80;8.97;;;13.70;99.90;;;;;;5010809;28;20470;-67
2022/10/11 08:33:14;;;;;;;18.50;9.47;;;13.70;99.90;;;;;;5010142;28;20474;-67
2022/10/11 08:35:40;;;;;;;15.20;11.00;;;13.70;99.90;;;;;;5010019;28;20489;-67
2022/10/11 08:38:07;;;;;;;16.00;9.90;;;13.70;99.90;;;;;;5009737;28;20461;-67
2022/10/11 08:40:35;;;;;;;15.90;10.67;;;13.70;99.90;;;;;;5010696;28;20836;-67
2022/10/11 08:43:04;;;;;;;18.00;9.67;;;13.70;99.90;;;;;;5012700;28;20855;-67
2022/10/11 08:45:38;;;;;;;14.50;10.90;;;13.80;99.90;;;;;;5013819;28;20544;-67
2022/10/11 08:48:13;;;;;;;15.53;10.00;;;13.70;99.90;;;;;;5013630;28;20464;-67
2022/10/11 08:50:42;;;;;;;12.80;9.20;;;13.80;99.90;;;;;;5013422;28;20560;-69
2022/10/11 08:53:18;;;;;;;14.50;10.60;;;13.80;99.90;;;;;;5032553;28;20464;-68
2022/10/11 08:55:49;;;;;;;19.00;10.90;;;13.70;99.90;;;;;;5033262;28;20484;-66
2022/10/11 08:58:20;;;;;;;16.10;10.33;;;13.70;99.90;;;;;;5033205;28;20465;-67
2022/10/11 09:00:50;;;;;;;15.67;10.80;;;13.70;99.90;;;;;;5033134;28;20465;-68
2022/10/11 09:03:28;;;;;;;19.40;10.27;;;13.60;99.90;;;;;;5032621;28;20469;-68
2022/10/11 09:06:06;;;;;;;13.33;10.27;;;13.60;99.90;;;;;;5032926;28;20487;-67
2022/10/11 09:08:48;;;;;;;13.37;9.63;;;13.60;99.90;;;;;;5033163;28;20468;-67
2022/10/11 09:11:23;;;;;;;15.53;11.83;;;13.60;99.90;;;;;;5032908;28;20658;-67
2022/10/11 09:14:11;;;;;;;19.17;11.23;;;13.60;99.90;;;;;;5032714;28;20484;-67
2022/10/11 09:16:49;;;;;;;13.73;9.57;;;13.70;99.90;;;;;;5029717;28;20485;-67
2022/10/11 09:19:43;;;;;;;13.90;10.00;;;13.60;99.90;;;;;;5029676;28;20464;-68
2022/10/11 09:22:19;;;;;;;16.03;10.83;;;13.70;99.90;;;;;;5032531;28;20461;-67
2022/10/11 09:24:58;;;;;;;14.83;11.00;;;13.70;99.90;;;;;;5033019;28;20487;-68
2022/10/11 09:27:30;;;;;;;15.10;9.17;;;13.70;99.90;;;;;;5032318;28;20457;-68
2022/10/11 09:30:02;;;;;;;14.90;9.90;;;13.70;99.90;;;;;;5032450;28;20492;-67
2022/10/11 09:32:34;;;;;;;16.50;9.50;;;13.70;99.90;;;;;;5031956;28;20980;-67
2022/10/11 09:35:12;;;;;;;10.00;8.30;;;13.70;99.90;;;;;;5031800;28;20715;-67
2022/10/11 09:37:46;;;;;;;18.10;11.63;;;13.70;99.90;;;;;;5031530;28;20489;-67
2022/10/11 09:40:27;;;;;;;20.07;11.20;;;13.70;99.90;;;;;;5032590;28;20884;-67
2022/10/11 09:42:53;;;;;;;13.20;9.30;;;13.70;99.90;;;;;;5031541;28;20465;-67
2022/10/11 09:45:22;;;;;;;10.67;8.07;;;13.70;99.90;;;;;;5032952;28;20488;-67
2022/10/11 09:47:50;;;;;;;11.87;7.73;;;13.70;99.90;;;;;;5032570;28;20473;-67
2022/10/11 09:50:21;;;;;;;13.80;10.47;;;13.80;99.90;;;;;;5032265;28;20480;-67
2022/10/11 09:52:48;;;;;;;13.50;9.13;;;13.90;99.90;;;;;;5030501;28;20468;-67
2022/10/11 09:55:32;;;;;;;17.60;8.80;;;14.00;99.90;;;;;;5032493;28;21014;-67
2022/10/11 09:57:59;;;;;;;16.57;10.30;;;14.00;99.90;;;;;;5032126;28;20465;-68
2022/10/11 10:00:27;;;;;;;15.60;11.17;;;14.10;99.90;;;;;;5032223;28;20468;-67
2022/10/11 10:02:55;;;;;;;9.00;8.10;;;14.10;99.90;;;;;;5031519;28;20465;-67
2022/10/11 10:05:25;;;;;;;11.43;9.77;;;14.10;99.90;;;;;;5031748;28;20488;-67
2022/10/11 10:08:21;;;;;;;19.10;10.40;;;14.20;99.90;;;;;;5031870;28;20463;-67
2022/10/11 10:10:56;;;;;;;17.47;9.73;;;14.20;99.90;;;;;;5031614;28;20979;-67
2022/10/11 10:13:25;;;;;;;14.03;10.30;;;14.10;99.90;;;;;;5031401;28;21015;-67
2022/10/11 10:15:55;;;;;;;20.77;10.40;;;14.10;99.90;;;;;;5031536;28;20489;-67
2022/10/11 10:18:27;;;;;;;13.87;10.40;;;14.00;99.90;;;;;;5031577;28;20481;-67
2022/10/11 10:20:58;;;;;;;14.30;9.80;;;14.00;99.90;;;;;;5031592;28;20457;-67
2022/10/11 10:23:28;;;;;;;11.53;8.83;;;14.00;99.90;;;;;;5031467;28;20457;-67
2022/10/11 10:26:14;;;;;;;17.67;10.03;;;14.00;99.90;;;;;;5031521;28;20457;-67
2022/10/11 10:28:55;;;;;;;14.73;9.13;;;14.10;99.90;;;;;;5031442;28;20480;-67
2022/10/11 10:31:24;;;;;;;14.10;9.10;;;14.10;99.90;;;;;;5031371;28;20476;-67
2022/10/11 10:33:52;;;;;;;13.83;9.50;;;14.10;99.90;;;;;;5031221;28;20484;-66
2022/10/11 10:36:27;;;;;;;12.17;8.63;;;14.10;99.90;;;;;;5031652;28;20543;-67
2022/10/11 10:39:01;;;;;;;16.67;10.10;;;14.20;99.90;;;;;;5031491;28;20522;-67
2022/10/11 10:41:27;;;;;;;17.30;10.17;;;14.20;99.90;;;;;;5030141;28;20465;-67
2022/10/11 10:43:56;;;;;;;16.97;10.57;;;14.10;99.90;;;;;;5031204;28;20492;-67
2022/10/11 10:46:36;;;;;;;22.10;10.10;;;14.10;99.90;;;;;;5031419;28;20895;-66
2022/10/11 10:49:12;;;;;;;16.50;10.20;;;14.10;99.90;;;;;;5028522;28;20460;-67
2022/10/11 10:51:52;;;;;;;17.13;9.37;;;14.10;99.90;;;;;;5030375;28;20453;-67
2022/10/11 10:54:33;;;;;;;17.07;9.20;;;14.10;99.90;;;;;;5030760;28;20519;-67
2022/10/11 10:57:04;;;;;;;14.30;9.07;;;14.10;99.90;;;;;;5030600;28;20492;-67
2022/10/11 10:59:44;;;;;;;19.50;10.20;;;14.20;99.90;;;;;;5031235;28;20526;-67
2022/10/11 11:02:16;;;;;;;14.53;9.07;;;14.30;99.90;;;;;;5030333;28;20475;-67
2022/10/11 11:04:49;;;;;;;16.33;9.57;;;14.30;99.90;;;;;;5029923;28;20484;-67
2022/10/11 11:07:23;;;;;;;14.17;10.07;;;14.30;99.90;;;;;;5030499;28;20461;-67
2022/10/11 11:09:59;;;;;;;11.10;8.80;;;14.30;99.90;;;;;;5030541;28;20465;-68
2022/10/11 11:12:36;;;;;;;12.70;9.43;;;14.40;99.90;;;;;;5030094;28;20468;-67
2022/10/11 11:15:09;;;;;;;15.97;9.00;;;14.30;99.90;;;;;;5030252;28;20480;-67
2022/10/11 11:17:48;;;;;;;11.57;8.20;;;14.40;99.90;;;;;;5030771;28;20486;-67
2022/10/11 11:20:28;;;;;;;12.30;8.70;;;14.40;99.90;;;;;;5028071;28;20659;-67
2022/10/11 11:23:02;;;;;;;10.00;7.57;;;14.40;99.90;;;;;;5029382;28;20464;-66
2022/10/11 11:25:41;;;;;;;17.17;10.20;;;14.40;99.90;;;;;;5030597;28;20492;-67
2022/10/11 11:28:21;;;;;;;15.10;9.07;;;14.50;99.90;;;;;;5030929;28;20452;-66
2022/10/11 11:30:57;;;;;;;13.17;8.73;;;14.50;99.90;;;;;;5030456;28;20464;-66
2022/10/11 11:33:36;;;;;;;15.10;8.97;;;14.50;99.90;;;;;;5030204;28;20455;-66
2022/10/11 11:36:09;;;;;;;13.20;8.27;;;14.50;99.90;;;;;;5030713;28;20488;-66
2022/10/11 11:38:44;;;;;;;15.37;10.27;;;14.50;99.90;;;;;;5031363;28;20467;-66
2022/10/11 11:41:16;;;;;;;12.07;8.13;;;14.40;99.90;;;;;;5030804;28;20470;-66
2022/10/11 11:43:54;;;;;;;23.00;9.50;;;14.40;99.90;;;;;;5030740;28;20465;-66
2022/10/11 11:48:53;;;;;;;12.47;8.90;;;14.40;99.90;;;;;;5028218;28;20469;-67
2022/10/11 11:51:23;;;;;;;12.37;9.43;;;14.40;99.90;;;;;;5030180;28;20811;-67
2022/10/11 11:53:59;;;;;;;11.80;8.93;;;14.40;99.90;;;;;;5030260;28;20481;-67
2022/10/11 11:56:29;;;;;;;11.50;8.87;;;14.30;99.90;;;;;;5030694;28;20489;-67
2022/10/11 11:59:03;;;;;;;11.17;8.70;;;14.30;99.90;;;;;;5030311;28;20461;-73
2022/10/11 12:01:37;;;;;;;10.90;8.37;;;14.30;99.90;;;;;;5030245;28;20503;-67
2022/10/11 12:04:11;;;;;;;10.80;7.90;;;14.30;99.90;;;;;;5030516;28;20477;-67
2022/10/11 12:06:39;;;;;;;12.27;7.37;;;14.30;99.90;;;;;;5030180;28;20461;-67
2022/10/11 12:09:20;;;;;;;10.33;7.97;;;14.30;99.90;;;;;;5030286;28;20459;-67
2022/10/11 12:11:54;;;;;;;13.80;8.73;;;14.30;99.90;;;;;;5029743;28;20572;-67
2022/10/11 12:14:28;;;;;;;14.10;8.23;;;14.30;99.90;;;;;;5030330;28;20488;-68
2022/10/11 12:17:22;;;;;;;15.17;8.57;;;14.20;99.90;;;;;;5032834;28;20492;-68
2022/10/11 12:20:20;;;;;;;13.03;9.67;;;14.20;99.90;;;;;;5034148;28;20452;-68
2022/10/11 12:22:59;;;;;;;11.50;7.93;;;14.20;99.90;;;;;;5033451;28;20461;-68
2022/10/11 12:25:45;;;;;;;12.77;7.87;;;14.20;99.90;;;;;;5034335;28;20999;-67
2022/10/11 12:28:49;;;;;;;13.57;7.97;;;14.20;99.90;;;;;;5034015;28;20496;-67
2022/10/11 12:31:24;;;;;;;10.33;7.80;;;14.20;99.90;;;;;;5033643;28;20836;-68
2022/10/11 12:34:20;;;;;;;11.47;7.77;;;14.20;99.90;;;;;;5033456;28;20478;-65
2022/10/11 12:36:48;;;;;;;9.33;6.20;;;14.20;99.90;;;;;;5031914;28;20488;-66
2022/10/11 12:39:44;;;;;;;9.67;8.03;;;14.20;99.90;;;;;;5033504;28;20467;-66
2022/10/11 12:42:36;;;;;;;9.80;7.90;;;14.20;99.90;;;;;;5020215;28;20806;-66
2022/10/11 12:45:32;;;;;;;12.90;7.20;;;14.20;99.90;;;;;;5018388;28;20484;-69
2022/10/11 12:48:38;;;;;;;9.40;6.77;;;14.20;99.90;;;;;;5033178;28;20468;-66
2022/10/11 12:51:24;;;;;;;9.63;6.07;;;14.30;99.90;;;;;;5003033;28;20464;-66
2022/10/11 12:54:05;;;;;;;9.87;7.20;;;14.30;99.90;;;;;;5033568;28;21071;-67
2022/10/11 12:56:42;;;;;;;10.50;7.20;;;14.40;99.90;;;;;;5033346;28;20485;-66
2022/10/11 12:59:16;;;;;;;11.57;8.20;;;14.50;99.90;;;;;;5033299;28;20472;-66
2022/10/11 13:01:51;;;;;;;8.93;6.57;;;14.50;99.90;;;;;;5032529;28;20464;-66
2022/10/11 13:04:20;;;;;;;8.53;6.23;;;14.60;99.90;;;;;;5033248;28;20491;-67